Time;durP1;ratioP1;P1;durP2;ratioP2;P2;SDS_P1;SDS_P2;PMS_P1;PMS_P2;Temp;Humidity;BMP_temperature;BMP_pressure;BME280_temperature;BME280_humidity;BME280_pressure;Samples;Min_cycle;Max_cycle;Signal;HPM_P1;HPM_P2
2024/03/05 00:00:10;;;;;;;87.55;37.08;;;6.90;99.90;;;;;;6211471;23;20004;-90
2024/03/05 00:02:43;;;;;;;103.43;40.90;;;6.80;99.90;;;;;;6211036;23;20395;-90
2024/03/05 00:05:12;;;;;;;98.07;38.80;;;6.70;99.90;;;;;;6186491;23;20142;-89
2024/03/05 00:07:38;;;;;;;101.15;39.80;;;6.70;99.90;;;;;;6210946;23;20701;-91
2024/03/05 00:10:04;;;;;;;101.45;41.20;;;6.70;99.90;;;;;;6211829;23;20015;-90
2024/03/05 00:12:33;;;;;;;99.63;39.45;;;6.60;99.90;;;;;;6210381;22;20051;-90
2024/03/05 00:14:59;;;;;;;107.30;41.53;;;6.40;99.90;;;;;;6209879;23;20019;-91
2024/03/05 00:17:25;;;;;;;98.82;38.85;;;6.40;99.90;;;;;;6210759;23;20391;-90
2024/03/05 00:19:51;;;;;;;107.70;39.88;;;6.50;99.90;;;;;;6210637;23;20016;-89
2024/03/05 00:22:17;;;;;;;107.03;41.58;;;6.60;99.90;;;;;;6210539;23;20395;-89
2024/03/05 00:24:43;;;;;;;97.53;38.67;;;6.50;99.90;;;;;;6211543;23;20014;-88
2024/03/05 00:27:27;;;;;;;108.70;40.25;;;6.50;99.90;;;;;;6211429;23;20087;-88
2024/03/05 00:33:15;;;;;;;105.60;38.97;;;6.20;99.90;;;;;;6212752;23;20461;-87
2024/03/05 00:44:49;;;;;;;96.30;35.78;;;6.80;99.90;;;;;;6232437;23;20018;-88
2024/03/05 00:47:15;;;;;;;93.80;31.65;;;6.90;99.90;;;;;;6204413;23;20087;-88
2024/03/05 00:49:40;;;;;;;75.13;29.00;;;7.00;99.90;;;;;;6206291;23;20019;-88
2024/03/05 00:52:06;;;;;;;91.88;33.60;;;6.80;99.90;;;;;;6206720;23;20012;-89
2024/03/05 00:54:31;;;;;;;89.90;36.38;;;6.90;99.90;;;;;;6203747;23;20012;-88
2024/03/05 00:56:57;;;;;;;74.05;28.02;;;6.90;99.90;;;;;;6204870;23;20004;-88
2024/03/05 00:59:23;;;;;;;70.13;28.30;;;7.00;99.90;;;;;;6205960;23;20012;-89
2024/03/05 01:01:49;;;;;;;68.38;27.33;;;7.00;99.90;;;;;;6207440;23;20012;-91
2024/03/05 01:04:14;;;;;;;64.00;25.70;;;7.00;99.90;;;;;;6207403;23;20026;-88
2024/03/05 01:06:46;;;;;;;86.47;31.10;;;6.90;99.90;;;;;;6207659;23;20020;-91
2024/03/05 01:09:16;;;;;;;66.07;28.88;;;7.00;99.90;;;;;;6211657;23;20023;-91
2024/03/05 01:11:42;;;;;;;86.97;34.92;;;7.00;99.90;;;;;;6210309;23;20012;-90
2024/03/05 01:14:08;;;;;;;58.30;24.27;;;7.00;99.90;;;;;;6169923;23;20021;-91
2024/03/05 01:16:33;;;;;;;73.78;28.73;;;6.90;99.90;;;;;;6209560;23;20020;-90
2024/03/05 01:19:01;;;;;;;84.88;32.40;;;6.90;99.90;;;;;;6210476;23;20066;-91
2024/03/05 01:21:26;;;;;;;84.03;32.55;;;7.00;99.90;;;;;;6210843;23;20458;-91
2024/03/05 01:23:53;;;;;;;74.47;29.63;;;6.90;99.90;;;;;;6207076;23;20062;-88
2024/03/05 01:26:18;;;;;;;88.40;32.92;;;7.00;99.90;;;;;;6182737;23;20393;-91
2024/03/05 01:28:44;;;;;;;69.68;24.63;;;7.00;99.90;;;;;;6207548;23;20477;-90
2024/03/05 01:31:10;;;;;;;70.65;27.95;;;7.10;99.90;;;;;;6204772;23;20382;-90
2024/03/05 01:33:37;;;;;;;92.80;34.92;;;7.20;99.90;;;;;;6208303;23;20076;-90
2024/03/05 01:36:03;;;;;;;80.95;31.33;;;7.00;99.90;;;;;;6205124;23;20478;-90
2024/03/05 01:38:29;;;;;;;57.10;22.83;;;6.90;99.90;;;;;;6203410;23;20008;-91
2024/03/05 01:40:55;;;;;;;82.75;31.88;;;7.00;99.90;;;;;;6210263;23;20020;-89
2024/03/05 01:43:21;;;;;;;50.80;23.17;;;7.10;99.90;;;;;;6210518;23;20004;-90
2024/03/05 01:45:47;;;;;;;74.50;28.75;;;7.20;99.90;;;;;;6210075;23;20420;-90
2024/03/05 01:48:13;;;;;;;66.80;25.75;;;7.10;99.90;;;;;;6179935;23;20013;-89
2024/03/05 01:50:38;;;;;;;69.45;28.25;;;7.20;99.90;;;;;;6175783;23;20016;-90
2024/03/05 01:53:09;;;;;;;77.57;29.23;;;7.00;99.90;;;;;;6209474;23;20350;-89
2024/03/05 01:55:35;;;;;;;71.97;26.88;;;7.00;99.90;;;;;;6209916;23;20020;-90
2024/03/05 01:58:03;;;;;;;77.97;32.10;;;6.90;99.90;;;;;;6209551;23;20020;-91
2024/03/05 02:00:29;;;;;;;90.03;34.42;;;7.00;99.90;;;;;;6210225;23;20035;-90
2024/03/05 02:02:55;;;;;;;101.28;36.25;;;6.90;99.90;;;;;;6208925;23;20012;-90
2024/03/05 02:05:21;;;;;;;80.13;27.88;;;6.90;99.90;;;;;;6212806;23;20215;-90
2024/03/05 02:07:47;;;;;;;94.85;35.08;;;6.90;99.90;;;;;;6211693;23;20040;-90
2024/03/05 02:10:12;;;;;;;78.40;29.75;;;6.90;99.90;;;;;;6212129;23;20479;-90
2024/03/05 02:12:40;;;;;;;87.65;34.40;;;6.90;99.90;;;;;;6211816;22;20020;-90
2024/03/05 02:15:10;;;;;;;96.47;34.72;;;7.00;99.90;;;;;;6211792;23;20083;-90
2024/03/05 02:17:37;;;;;;;97.78;36.13;;;6.90;99.90;;;;;;6212622;23;20005;-90
2024/03/05 02:20:05;;;;;;;100.90;37.15;;;7.00;99.90;;;;;;6212262;23;20371;-90
2024/03/05 02:22:30;;;;;;;103.95;37.95;;;6.80;99.90;;;;;;6213596;23;20013;-89
2024/03/05 02:24:56;;;;;;;101.45;35.90;;;6.80;99.90;;;;;;6209496;23;20008;-90
2024/03/05 02:27:21;;;;;;;98.65;35.80;;;6.90;99.90;;;;;;6213948;23;20030;-90
2024/03/05 02:29:47;;;;;;;96.05;34.38;;;6.80;99.90;;;;;;6211972;23;20012;-90
2024/03/05 02:32:13;;;;;;;76.57;30.50;;;6.90;99.90;;;;;;6211421;23;20035;-90
2024/03/05 02:34:38;;;;;;;91.10;32.30;;;6.90;99.90;;;;;;6212507;23;20012;-89
2024/03/05 02:37:04;;;;;;;94.20;36.13;;;6.80;99.90;;;;;;6212226;23;20015;-90
2024/03/05 02:39:30;;;;;;;103.63;36.95;;;6.80;99.90;;;;;;6212454;23;20043;-91
2024/03/05 02:41:56;;;;;;;94.13;35.92;;;6.80;99.90;;;;;;6212566;23;20019;-90
2024/03/05 02:44:22;;;;;;;92.32;35.08;;;6.80;99.90;;;;;;6186571;23;20058;-90
2024/03/05 02:46:49;;;;;;;100.43;35.45;;;6.90;99.90;;;;;;6212468;23;20012;-89
2024/03/05 02:49:15;;;;;;;95.68;35.47;;;6.80;99.90;;;;;;6212631;23;20019;-90
2024/03/05 02:51:40;;;;;;;104.00;37.30;;;6.70;99.90;;;;;;6207529;23;20012;-90
2024/03/05 02:54:09;;;;;;;96.82;36.03;;;6.70;99.90;;;;;;6211613;23;20016;-89
2024/03/05 02:56:34;;;;;;;99.95;35.42;;;6.70;99.90;;;;;;6209050;23;20016;-90
2024/03/05 02:59:00;;;;;;;102.82;34.33;;;6.60;99.90;;;;;;6211571;23;20198;-90
2024/03/05 03:01:25;;;;;;;99.15;34.33;;;6.70;99.90;;;;;;6213474;23;20688;-91
2024/03/05 03:03:51;;;;;;;87.30;33.30;;;6.70;99.90;;;;;;6212062;23;20004;-89
2024/03/05 03:06:17;;;;;;;94.90;33.97;;;6.80;99.90;;;;;;6209460;23;20402;-90
2024/03/05 03:08:43;;;;;;;94.40;34.28;;;6.70;99.90;;;;;;6211496;23;20058;-90
2024/03/05 03:11:15;;;;;;;100.68;35.03;;;6.70;99.90;;;;;;6211554;23;20621;-90
2024/03/05 03:13:41;;;;;;;90.57;33.30;;;6.70;99.90;;;;;;6211652;23;20464;-89
2024/03/05 03:16:07;;;;;;;97.15;34.38;;;6.70;99.90;;;;;;6211429;23;20032;-89
2024/03/05 03:18:34;;;;;;;91.85;34.65;;;6.60;99.90;;;;;;6212023;23;20012;-90
2024/03/05 03:20:59;;;;;;;94.32;31.33;;;6.70;99.90;;;;;;6209670;23;20446;-90
2024/03/05 03:23:26;;;;;;;90.78;32.20;;;6.70;99.90;;;;;;6211340;23;20004;-89
2024/03/05 03:25:53;;;;;;;80.95;31.13;;;6.70;99.90;;;;;;6211625;23;20086;-90
2024/03/05 03:28:18;;;;;;;81.75;30.67;;;6.80;99.90;;;;;;6211797;23;20382;-90
2024/03/05 03:30:44;;;;;;;86.35;31.42;;;6.60;99.90;;;;;;6211973;23;20022;-89
2024/03/05 03:33:10;;;;;;;88.15;32.25;;;6.60;99.90;;;;;;6211448;23;20438;-90
2024/03/05 03:35:35;;;;;;;87.38;30.65;;;6.60;99.90;;;;;;6211364;23;20027;-89
2024/03/05 03:38:01;;;;;;;86.25;33.05;;;6.60;99.90;;;;;;6212059;23;20069;-90
2024/03/05 03:40:33;;;;;;;89.55;31.58;;;6.60;99.90;;;;;;6212710;23;20008;-89
2024/03/05 03:42:59;;;;;;;87.80;29.85;;;6.60;99.90;;;;;;6212540;23;20122;-89
2024/03/05 03:45:24;;;;;;;82.40;29.52;;;6.60;99.90;;;;;;6211614;23;20012;-89
2024/03/05 03:47:50;;;;;;;81.53;30.98;;;6.50;99.90;;;;;;6211662;23;20441;-90
2024/03/05 03:50:16;;;;;;;85.03;31.65;;;6.40;99.90;;;;;;6212365;23;20034;-90
2024/03/05 03:52:43;;;;;;;87.25;31.50;;;6.40;99.90;;;;;;6211847;23;20020;-90
2024/03/05 03:55:08;;;;;;;83.93;30.67;;;6.30;99.90;;;;;;6211582;23;20016;-90
2024/03/05 03:57:34;;;;;;;79.32;29.70;;;6.20;99.90;;;;;;6210409;23;20016;-88
2024/03/05 04:00:01;;;;;;;73.72;27.73;;;6.30;99.90;;;;;;6210464;23;20028;-92
2024/03/05 04:02:27;;;;;;;85.70;29.00;;;6.30;99.90;;;;;;6209230;23;20012;-89
2024/03/05 04:04:53;;;;;;;58.78;23.17;;;6.30;99.90;;;;;;6211257;23;20441;-89
2024/03/05 04:07:19;;;;;;;69.25;26.67;;;6.30;99.90;;;;;;6209206;23;20015;-90
2024/03/05 04:09:45;;;;;;;80.60;29.42;;;6.20;99.90;;;;;;6207627;23;20447;-89
2024/03/05 04:12:13;;;;;;;76.32;28.27;;;6.10;99.90;;;;;;6207416;23;20062;-89
2024/03/05 04:14:40;;;;;;;81.80;29.10;;;6.00;99.90;;;;;;6208588;23;20111;-89
2024/03/05 04:17:06;;;;;;;73.90;28.85;;;6.00;99.90;;;;;;6208703;23;20506;-90
2024/03/05 04:19:31;;;;;;;82.20;28.60;;;6.00;99.90;;;;;;6208927;23;20016;-89
2024/03/05 04:21:58;;;;;;;85.93;31.65;;;6.00;99.90;;;;;;6210342;23;20012;-89
2024/03/05 04:24:23;;;;;;;85.78;29.38;;;5.90;99.90;;;;;;6206101;23;20095;-90
2024/03/05 04:26:52;;;;;;;84.95;29.98;;;5.80;99.90;;;;;;6209206;23;20023;-89
2024/03/05 04:29:19;;;;;;;81.63;29.23;;;5.80;99.90;;;;;;6208053;23;20035;-89
2024/03/05 04:31:54;;;;;;;80.90;29.73;;;5.80;99.90;;;;;;6209376;23;20016;-89
2024/03/05 04:34:20;;;;;;;82.30;29.00;;;5.70;99.90;;;;;;6207246;23;20023;-88
2024/03/05 04:36:46;;;;;;;85.25;29.75;;;5.70;99.90;;;;;;6207665;23;20023;-88
2024/03/05 04:39:15;;;;;;;92.65;30.13;;;5.70;99.90;;;;;;6208868;23;20150;-89
2024/03/05 04:41:44;;;;;;;87.40;29.10;;;5.50;99.90;;;;;;6209210;23;20016;-90
2024/03/05 04:44:09;;;;;;;90.53;29.98;;;5.60;99.90;;;;;;6207855;23;20130;-89
2024/03/05 04:46:35;;;;;;;81.80;30.85;;;5.70;99.90;;;;;;6208678;23;20035;-89
2024/03/05 04:49:00;;;;;;;89.00;30.67;;;5.60;99.90;;;;;;6211414;23;20004;-91
2024/03/05 04:51:26;;;;;;;93.40;30.80;;;5.70;99.90;;;;;;6185081;23;20039;-90
2024/03/05 04:53:52;;;;;;;66.93;23.77;;;5.70;99.90;;;;;;6207449;23;20015;-90
2024/03/05 04:56:18;;;;;;;92.82;30.63;;;5.80;99.90;;;;;;6207242;23;20019;-89
2024/03/05 04:58:45;;;;;;;89.72;30.90;;;5.70;99.90;;;;;;6207960;23;20017;-89
2024/03/05 05:01:11;;;;;;;80.28;26.25;;;5.80;99.90;;;;;;6206687;23;20020;-89
2024/03/05 05:03:36;;;;;;;89.47;30.63;;;5.80;99.90;;;;;;6208631;23;20016;-88
2024/03/05 05:06:02;;;;;;;80.15;27.23;;;5.90;99.90;;;;;;6208604;23;20035;-89
2024/03/05 05:08:28;;;;;;;89.28;29.92;;;5.90;99.90;;;;;;6209429;23;20016;-89
2024/03/05 05:10:53;;;;;;;65.90;24.80;;;5.80;99.90;;;;;;6207795;23;20038;-89
2024/03/05 05:13:20;;;;;;;78.45;26.55;;;5.90;99.90;;;;;;6206501;23;20020;-89
2024/03/05 05:15:46;;;;;;;79.80;30.25;;;5.90;99.90;;;;;;6208241;23;20350;-89
2024/03/05 05:18:13;;;;;;;89.15;29.35;;;6.10;99.90;;;;;;6208492;23;20015;-89
2024/03/05 05:20:39;;;;;;;80.05;26.13;;;5.90;99.90;;;;;;6207890;23;20118;-89
2024/03/05 05:23:04;;;;;;;87.13;29.67;;;5.90;99.90;;;;;;6207933;23;20008;-89
2024/03/05 05:25:30;;;;;;;92.30;30.55;;;5.90;99.90;;;;;;6208032;23;20015;-89
2024/03/05 05:27:55;;;;;;;81.35;29.52;;;5.90;99.90;;;;;;6207994;23;20589;-89
2024/03/05 05:30:22;;;;;;;88.53;29.05;;;6.00;99.90;;;;;;6208035;23;20008;-89
2024/03/05 05:32:48;;;;;;;70.03;24.13;;;6.00;99.90;;;;;;6205486;23;20159;-89
2024/03/05 05:35:14;;;;;;;78.63;25.63;;;6.00;99.90;;;;;;6207452;23;20040;-90
2024/03/05 05:37:40;;;;;;;95.47;32.90;;;6.10;99.90;;;;;;6208271;23;20069;-89
2024/03/05 05:40:10;;;;;;;92.25;30.95;;;6.10;99.90;;;;;;6209040;23;20308;-90
2024/03/05 05:42:39;;;;;;;81.80;29.40;;;6.00;99.90;;;;;;6209335;23;20070;-90
2024/03/05 05:45:12;;;;;;;94.03;29.27;;;6.00;99.90;;;;;;6208952;23;20421;-89
2024/03/05 05:47:38;;;;;;;71.72;24.90;;;6.00;99.90;;;;;;6209129;23;20020;-88
2024/03/05 05:50:17;;;;;;;87.82;30.30;;;6.00;99.90;;;;;;6210363;23;20342;-89
2024/03/05 05:52:49;;;;;;;77.40;23.92;;;6.10;99.90;;;;;;6208401;23;20014;-88
2024/03/05 05:55:17;;;;;;;90.07;29.30;;;6.10;99.90;;;;;;6207599;23;20009;-90
2024/03/05 05:57:47;;;;;;;90.45;29.60;;;6.20;99.90;;;;;;6209292;23;20450;-89
2024/03/05 06:03:00;;;;;;;83.45;29.42;;;6.10;99.90;;;;;;6213625;23;20081;-89
2024/03/05 06:05:28;;;;;;;90.60;29.30;;;6.10;99.90;;;;;;6209996;23;20004;-89
2024/03/05 06:07:54;;;;;;;88.15;29.33;;;6.20;99.90;;;;;;6210396;23;20131;-89
2024/03/05 06:10:22;;;;;;;86.90;28.25;;;6.10;99.90;;;;;;6210794;23;20022;-89
2024/03/05 06:12:47;;;;;;;85.32;28.63;;;6.10;99.90;;;;;;6209628;23;20026;-89
2024/03/05 06:15:13;;;;;;;85.88;29.25;;;6.10;99.90;;;;;;6209042;23;20016;-90
2024/03/05 06:17:40;;;;;;;91.90;29.23;;;6.10;99.90;;;;;;6209826;23;20413;-88
2024/03/05 06:20:10;;;;;;;85.65;27.80;;;6.10;99.90;;;;;;6209922;23;20010;-88
2024/03/05 06:22:37;;;;;;;77.45;27.42;;;6.10;99.90;;;;;;6210769;23;20008;-90
2024/03/05 06:25:03;;;;;;;93.72;29.83;;;6.10;99.90;;;;;;6211784;23;20024;-88
2024/03/05 06:27:28;;;;;;;69.25;25.38;;;6.10;99.90;;;;;;6209462;23;20433;-88
2024/03/05 06:29:54;;;;;;;88.07;26.35;;;6.10;99.90;;;;;;6209306;23;20024;-89
2024/03/05 06:32:20;;;;;;;77.85;27.08;;;6.10;99.90;;;;;;6212745;23;20009;-88
2024/03/05 06:34:46;;;;;;;82.15;27.33;;;6.10;99.90;;;;;;6211976;23;20195;-89
2024/03/05 06:37:12;;;;;;;85.88;27.75;;;6.10;99.90;;;;;;6211624;23;20016;-88
2024/03/05 06:39:41;;;;;;;83.15;26.60;;;6.20;99.90;;;;;;6212180;23;20016;-89
2024/03/05 06:42:10;;;;;;;86.07;29.33;;;6.30;99.90;;;;;;6212021;23;20445;-90
2024/03/05 06:44:36;;;;;;;86.13;28.15;;;6.20;99.90;;;;;;6210254;23;20023;-89
2024/03/05 06:47:05;;;;;;;92.15;28.50;;;6.20;99.90;;;;;;6210609;23;20008;-89
2024/03/05 06:49:38;;;;;;;85.25;26.38;;;6.20;99.90;;;;;;6187510;23;20038;-88
2024/03/05 06:57:34;;;;;;;61.30;21.92;;;6.40;99.90;;;;;;6217515;23;20018;-89
2024/03/05 07:00:03;;;;;;;72.45;23.05;;;6.50;99.90;;;;;;6187920;23;20004;-89
2024/03/05 07:02:31;;;;;;;91.50;30.23;;;6.40;99.90;;;;;;6211452;23;20008;-88
2024/03/05 07:04:57;;;;;;;53.25;17.73;;;6.40;99.90;;;;;;6212585;23;20031;-90
2024/03/05 07:07:22;;;;;;;68.47;21.80;;;6.50;99.90;;;;;;6210579;23;20016;-88
2024/03/05 07:09:48;;;;;;;46.53;16.13;;;6.60;99.90;;;;;;6211045;23;20012;-88
2024/03/05 07:12:15;;;;;;;80.38;24.70;;;6.60;99.90;;;;;;6212156;23;20067;-89
2024/03/05 07:14:40;;;;;;;82.40;26.80;;;6.70;99.90;;;;;;6211340;23;20019;-88
2024/03/05 07:17:06;;;;;;;90.93;29.40;;;6.80;99.90;;;;;;6214017;23;20012;-90
2024/03/05 07:19:32;;;;;;;75.43;24.38;;;6.70;99.90;;;;;;6215373;23;20020;-90
2024/03/05 07:21:58;;;;;;;74.40;25.02;;;6.70;99.90;;;;;;6216544;23;20016;-89
2024/03/05 07:24:23;;;;;;;63.25;22.58;;;6.80;99.90;;;;;;6213286;23;20421;-89
2024/03/05 07:26:49;;;;;;;65.97;23.55;;;6.80;99.90;;;;;;6208709;23;20020;-90
2024/03/05 07:29:14;;;;;;;69.00;25.02;;;6.90;99.90;;;;;;6214552;23;20008;-90
2024/03/05 07:31:41;;;;;;;78.70;26.85;;;7.00;99.90;;;;;;6213190;23;20022;-90
2024/03/05 07:34:07;;;;;;;83.35;28.75;;;7.00;99.90;;;;;;6212161;23;20004;-89
2024/03/05 07:36:33;;;;;;;91.45;28.67;;;7.00;99.90;;;;;;6215330;23;20031;-89
2024/03/05 07:39:00;;;;;;;89.20;28.05;;;7.00;99.90;;;;;;6212960;23;20082;-89
2024/03/05 07:41:27;;;;;;;77.57;25.73;;;7.00;99.90;;;;;;6215336;23;20016;-90
2024/03/05 07:43:53;;;;;;;87.15;28.48;;;7.10;99.90;;;;;;6216300;23;20083;-90
2024/03/05 07:46:19;;;;;;;89.25;28.08;;;7.20;99.90;;;;;;6215181;23;20008;-91
2024/03/05 07:48:44;;;;;;;81.70;29.45;;;7.20;99.90;;;;;;6215850;23;20019;-90
2024/03/05 07:51:10;;;;;;;78.97;26.88;;;7.20;99.90;;;;;;6214417;23;20080;-91
2024/03/05 07:53:36;;;;;;;91.97;30.35;;;7.30;99.90;;;;;;6213691;23;20103;-91
2024/03/05 07:56:04;;;;;;;69.00;24.08;;;7.50;99.90;;;;;;6215994;23;20012;-90
2024/03/05 07:58:30;;;;;;;78.30;27.25;;;7.40;99.90;;;;;;6214438;23;20012;-92
2024/03/05 08:00:58;;;;;;;67.80;24.75;;;7.50;99.90;;;;;;6215232;23;20094;-90
2024/03/05 08:03:23;;;;;;;68.53;24.48;;;7.60;99.90;;;;;;6214614;23;20024;-91
2024/03/05 08:05:50;;;;;;;73.32;26.30;;;7.80;99.90;;;;;;6203674;23;20350;-90
2024/03/05 08:08:16;;;;;;;86.20;27.98;;;7.80;99.90;;;;;;6215642;23;20008;-89
2024/03/05 08:10:42;;;;;;;69.88;24.42;;;7.90;99.90;;;;;;6219428;23;20031;-89
2024/03/05 08:13:07;;;;;;;72.00;25.17;;;8.00;99.90;;;;;;6198901;23;20122;-90
2024/03/05 08:15:33;;;;;;;73.13;27.15;;;8.10;99.90;;;;;;6157105;23;20016;-90
2024/03/05 08:18:00;;;;;;;71.25;26.95;;;8.10;99.90;;;;;;6214501;23;20023;-91
2024/03/05 08:20:26;;;;;;;66.53;25.25;;;8.10;99.90;;;;;;6201681;23;20008;-90
2024/03/05 08:22:52;;;;;;;71.32;24.70;;;8.30;99.90;;;;;;6214434;23;20018;-90
2024/03/05 08:25:18;;;;;;;58.85;23.45;;;8.30;99.90;;;;;;6215226;23;20454;-89
2024/03/05 08:27:44;;;;;;;53.03;20.00;;;8.40;99.90;;;;;;6217899;23;20020;-89
2024/03/05 08:30:17;;;;;;;38.85;15.43;;;8.50;99.90;;;;;;6220187;23;20762;-90
2024/03/05 08:32:43;;;;;;;38.80;15.43;;;8.50;99.90;;;;;;6218283;23;20015;-89
2024/03/05 08:35:13;;;;;;;41.45;16.70;;;8.60;99.90;;;;;;6219341;23;20008;-89
2024/03/05 08:37:43;;;;;;;38.35;14.85;;;8.80;99.90;;;;;;6218628;23;20497;-90
2024/03/05 08:40:15;;;;;;;58.30;22.40;;;8.80;99.90;;;;;;6217283;23;20069;-89
2024/03/05 08:42:44;;;;;;;57.30;21.65;;;8.90;99.90;;;;;;6197357;23;20008;-89
2024/03/05 08:45:12;;;;;;;65.03;27.02;;;9.00;99.90;;;;;;6153476;23;20008;-89
2024/03/05 08:47:38;;;;;;;60.15;24.15;;;9.00;99.90;;;;;;6219309;23;20468;-89
2024/03/05 08:50:04;;;;;;;54.50;22.17;;;9.30;99.90;;;;;;6193854;23;20028;-90
2024/03/05 08:52:30;;;;;;;51.97;21.38;;;9.40;99.90;;;;;;6219180;23;20091;-89
2024/03/05 08:54:56;;;;;;;46.95;18.10;;;9.60;99.90;;;;;;6220297;23;20422;-90
2024/03/05 08:57:26;;;;;;;50.38;20.45;;;9.50;99.90;;;;;;6218328;23;20023;-90
2024/03/05 08:59:54;;;;;;;45.20;19.10;;;9.60;99.90;;;;;;6218115;23;20031;-90
2024/03/05 09:02:19;;;;;;;47.58;19.88;;;9.80;99.90;;;;;;6219933;23;20027;-89
2024/03/05 09:04:48;;;;;;;48.28;20.90;;;9.80;99.90;;;;;;6221010;23;20012;-89
2024/03/05 09:07:14;;;;;;;57.95;24.27;;;9.90;99.90;;;;;;6220186;23;20035;-90
2024/03/05 09:09:41;;;;;;;57.67;24.27;;;10.00;99.90;;;;;;6221836;23;20446;-90
2024/03/05 09:12:07;;;;;;;44.90;19.95;;;10.10;99.90;;;;;;6222190;23;20016;-91
2024/03/05 09:14:34;;;;;;;48.00;22.38;;;10.30;99.90;;;;;;6220979;23;20024;-90
2024/03/05 09:17:00;;;;;;;54.00;23.25;;;10.40;99.90;;;;;;6224309;23;20433;-89
2024/03/05 09:19:26;;;;;;;48.38;21.92;;;10.50;99.90;;;;;;6205425;23;20054;-89
2024/03/05 09:21:52;;;;;;;41.70;19.90;;;10.60;99.90;;;;;;6176854;23;20008;-89
2024/03/05 09:24:18;;;;;;;53.90;21.80;;;10.70;99.90;;;;;;6220815;23;20047;-90
2024/03/05 09:26:43;;;;;;;47.28;20.90;;;10.50;99.90;;;;;;6224247;23;20020;-91
2024/03/05 09:29:13;;;;;;;45.35;21.27;;;10.50;99.90;;;;;;6225932;23;20008;-90
2024/03/05 09:31:39;;;;;;;58.45;23.55;;;10.80;99.90;;;;;;6200321;23;20012;-90
2024/03/05 09:34:05;;;;;;;46.72;21.10;;;10.90;99.90;;;;;;6200419;23;20012;-91
2024/03/05 09:36:31;;;;;;;48.38;21.80;;;10.80;99.90;;;;;;6224939;23;20012;-89
2024/03/05 09:38:57;;;;;;;56.90;25.58;;;10.70;99.90;;;;;;6224394;23;20012;-90
2024/03/05 09:41:22;;;;;;;53.45;24.75;;;11.10;99.90;;;;;;6223982;23;20019;-90
2024/03/05 09:43:48;;;;;;;55.00;22.98;;;11.30;99.90;;;;;;6222417;23;20012;-90
2024/03/05 09:46:32;;;;;;;66.45;27.00;;;11.30;99.90;;;;;;6224258;23;20012;-90
2024/03/05 09:48:58;;;;;;;49.95;21.77;;;11.60;99.90;;;;;;6223829;23;20016;-91
2024/03/05 09:51:23;;;;;;;50.33;19.38;;;11.70;99.90;;;;;;6224080;23;20023;-91
2024/03/05 09:53:51;;;;;;;48.10;19.45;;;11.50;99.90;;;;;;6220388;23;20008;-92
2024/03/05 09:56:16;;;;;;;41.75;19.42;;;11.20;99.90;;;;;;6222257;23;20326;-91
2024/03/05 09:58:42;;;;;;;46.60;19.05;;;11.30;99.90;;;;;;6221169;23;20022;-91
2024/03/05 10:01:10;;;;;;;50.15;18.63;;;11.60;99.90;;;;;;6224272;23;20008;-91
2024/03/05 10:03:37;;;;;;;46.60;21.58;;;12.00;99.90;;;;;;6174597;23;20086;-90
2024/03/05 10:06:05;;;;;;;56.47;24.38;;;11.80;99.90;;;;;;6224214;23;20008;-91
2024/03/05 10:09:08;;;;;;;51.08;22.02;;;11.60;99.90;;;;;;6221820;23;20040;-90
2024/03/05 10:11:31;;;;;;;44.38;18.98;;;11.90;99.90;;;;;;6229296;23;20020;-91
2024/03/05 10:14:08;;;;;;;50.67;21.83;;;12.10;99.90;;;;;;6222772;23;20020;-91
2024/03/05 10:16:34;;;;;;;46.25;22.80;;;11.90;99.90;;;;;;6223826;23;20012;-90
2024/03/05 10:19:14;;;;;;;46.50;20.67;;;11.90;99.90;;;;;;6220392;23;20016;-90
2024/03/05 10:21:47;;;;;;;51.83;25.15;;;12.10;99.90;;;;;;6224169;23;20012;-90
2024/03/05 10:24:13;;;;;;;42.00;20.60;;;11.80;99.90;;;;;;6194916;23;20012;-90
2024/03/05 10:26:41;;;;;;;44.15;18.65;;;11.90;99.90;;;;;;6222911;23;20016;-92
2024/03/05 10:29:08;;;;;;;42.30;15.82;;;11.90;99.90;;;;;;6216781;23;20005;-91
2024/03/05 10:31:40;;;;;;;51.17;22.33;;;11.90;99.90;;;;;;6223229;23;20016;-90
2024/03/05 10:34:06;;;;;;;39.97;16.73;;;11.90;99.90;;;;;;6222630;23;20332;-90
2024/03/05 10:36:33;;;;;;;52.38;24.48;;;11.80;99.90;;;;;;6223745;23;20012;-91
2024/03/05 10:38:59;;;;;;;41.53;18.67;;;11.70;99.90;;;;;;6224873;23;20012;-92
2024/03/05 10:41:30;;;;;;;43.15;21.05;;;11.60;99.90;;;;;;6226159;23;20016;-91
2024/03/05 10:44:00;;;;;;;47.78;20.23;;;11.30;99.90;;;;;;6228396;23;20039;-92
2024/03/05 10:46:30;;;;;;;51.17;23.02;;;11.20;99.90;;;;;;6225753;23;20031;-91
2024/03/05 10:49:03;;;;;;;45.17;20.65;;;11.10;99.90;;;;;;6224428;23;20009;-91
2024/03/05 10:51:37;;;;;;;46.40;19.75;;;11.20;99.90;;;;;;6226958;23;20020;-92
2024/03/05 10:54:04;;;;;;;44.05;21.15;;;11.00;99.90;;;;;;6226111;23;20028;-91
2024/03/05 10:56:30;;;;;;;51.72;25.83;;;11.10;99.90;;;;;;6225457;23;20054;-90
2024/03/05 11:01:41;;;;;;;45.03;21.55;;;11.30;99.90;;;;;;6229663;23;20116;-91
2024/03/05 11:04:14;;;;;;;55.88;25.17;;;11.20;99.90;;;;;;6224495;23;20008;-91
2024/03/05 11:06:40;;;;;;;49.90;21.63;;;10.90;99.90;;;;;;6201209;23;20024;-91
2024/03/05 11:09:09;;;;;;;51.53;23.40;;;10.70;99.90;;;;;;6163681;23;20032;-91
2024/03/05 11:11:39;;;;;;;45.30;21.80;;;11.00;99.90;;;;;;6200441;23;20012;-90
2024/03/05 11:14:10;;;;;;;56.90;25.45;;;11.10;99.90;;;;;;6214045;23;20020;-90
2024/03/05 11:16:36;;;;;;;50.35;24.48;;;11.00;99.90;;;;;;6224852;23;20039;-91
2024/03/05 11:19:07;;;;;;;50.97;23.15;;;10.90;99.90;;;;;;6228052;23;21706;-90
2024/03/05 11:21:35;;;;;;;57.70;27.05;;;10.80;99.90;;;;;;6214573;23;20008;-92
2024/03/05 11:24:02;;;;;;;61.53;25.60;;;10.80;99.90;;;;;;6227865;23;20000;-91
2024/03/05 11:26:29;;;;;;;51.17;25.25;;;10.70;99.90;;;;;;6224705;23;20074;-90
2024/03/05 11:29:14;;;;;;;50.80;22.92;;;10.80;99.90;;;;;;6223405;23;20008;-91
2024/03/05 11:31:50;;;;;;;46.70;22.65;;;10.70;99.90;;;;;;6224014;23;20011;-91
2024/03/05 11:34:17;;;;;;;48.80;22.55;;;10.80;99.90;;;;;;6199892;23;20011;-90
2024/03/05 11:36:44;;;;;;;44.15;21.92;;;10.90;99.90;;;;;;6225659;23;20008;-91
2024/03/05 11:39:20;;;;;;;54.72;25.60;;;10.80;99.90;;;;;;6227962;23;20038;-90
2024/03/05 11:41:54;;;;;;;;;;;10.90;99.90;;;;;;6196345;23;20092;-91
2024/03/05 11:44:34;;;;;;;42.05;19.40;;;10.80;99.90;;;;;;6190035;23;19904;-92
2024/03/05 11:47:00;;;;;;;44.30;22.90;;;10.70;99.90;;;;;;6208935;23;20014;-91
2024/03/05 11:49:28;;;;;;;47.90;22.70;;;10.70;99.90;;;;;;6222653;23;20038;-91
2024/03/05 11:51:54;;;;;;;44.40;20.88;;;10.70;99.90;;;;;;6188293;23;20013;-91
2024/03/05 11:54:21;;;;;;;41.80;19.67;;;10.60;99.90;;;;;;6194388;23;20008;-90
2024/03/05 11:56:55;;;;;;;62.10;29.60;;;10.60;99.90;;;;;;6221353;23;20040;-90
2024/03/05 11:59:21;;;;;;;47.53;20.45;;;10.50;99.90;;;;;;6221800;23;20004;-91
2024/03/05 12:01:47;;;;;;;56.20;25.90;;;10.50;99.90;;;;;;6222533;23;20008;-90
2024/03/05 12:04:13;;;;;;;53.05;24.63;;;10.50;99.90;;;;;;6225937;23;20346;-90
2024/03/05 12:06:42;;;;;;;47.67;21.50;;;10.40;99.90;;;;;;6173406;23;20012;-89
2024/03/05 12:09:20;;;;;;;21.05;9.55;;;10.40;99.90;;;;;;6198509;23;20035;-90
2024/03/05 12:12:02;;;;;;;40.88;21.52;;;10.40;99.90;;;;;;6223250;23;20055;-89
2024/03/05 12:14:30;;;;;;;45.28;21.27;;;10.30;99.90;;;;;;6220992;23;20019;-89
2024/03/05 12:16:59;;;;;;;52.17;25.80;;;10.30;99.90;;;;;;6222546;23;20023;-90
2024/03/05 12:19:25;;;;;;;50.30;23.58;;;10.20;99.90;;;;;;6220457;23;20016;-90
2024/03/05 12:21:53;;;;;;;45.55;21.25;;;10.20;99.90;;;;;;6221259;23;20031;-90
2024/03/05 12:24:21;;;;;;;46.22;20.33;;;10.10;99.90;;;;;;6221617;23;20019;-91
2024/03/05 12:26:47;;;;;;;49.65;23.75;;;10.00;99.90;;;;;;6224150;23;20015;-90
2024/03/05 12:29:24;;;;;;;46.53;22.05;;;10.10;99.90;;;;;;6223352;23;20004;-90
2024/03/05 12:32:02;;;;;;;42.72;18.90;;;10.10;99.90;;;;;;6222813;23;20023;-91
2024/03/05 12:37:51;;;;;;;43.05;20.80;;;9.80;99.90;;;;;;6186045;23;20036;-90
2024/03/05 12:40:20;;;;;;;50.20;24.67;;;9.90;99.90;;;;;;6189473;23;20320;-90
2024/03/05 12:42:48;;;;;;;42.22;18.67;;;10.00;99.90;;;;;;6216251;23;20008;-90
2024/03/05 12:45:18;;;;;;;44.90;23.48;;;9.90;99.90;;;;;;6218333;23;20008;-91
2024/03/05 12:47:59;;;;;;;37.20;17.33;;;9.80;99.90;;;;;;6193288;23;20008;-90
2024/03/05 12:50:25;;;;;;;41.10;19.92;;;9.80;99.90;;;;;;6188263;23;20020;-90
2024/03/05 12:53:01;;;;;;;39.78;18.58;;;9.80;99.90;;;;;;6214645;23;20020;-90
2024/03/05 12:55:30;;;;;;;38.33;14.35;;;9.70;99.90;;;;;;6185950;23;20016;-91
2024/03/05 12:58:11;;;;;;;35.72;13.75;;;9.80;99.90;;;;;;6212635;23;20347;-90
2024/03/05 13:00:39;;;;;;;34.45;16.85;;;9.60;99.90;;;;;;6212284;23;20038;-89